Latest Weather Observations for Taree Airport

IDN60801

Issued at 9:02 am EDT Thursday 23 March 2017 (issued every 30 minutes, with the page automatically refreshed every 10 minutes)

About weather observations | Map of weather stations | Latest weather observations for NSW | Other Formats
Station Details ID: 060141 Name: TAREE AIRPORT AWS Lat: -31.89 Lon: 152.51 Height: 8.0 m
Data from the previous 72 hours. | See also: Recent months at Taree Airport
Date/Time
EDT
Temp
°C
App
Temp
°C
Dew
Point
°C
Rel
Hum
%
Delta-T
°C
Wind Press
QNH
hPa
Press
MSL
hPa
Rain since
9am
mm
Dir  Spd
km/h
Gust
km/h
Spd
kts
Gust
kts
23/09:00am 23.1 24.3 19.9 82 2.1 SW 13 19 7 10 1017.0 1017.0 2.0
23/08:30am 22.6 24.8 20.5 88 1.4 WSW 9 13 5 7 1016.7 1016.7 2.0
23/08:00am 22.1 24.3 20.4 90 1.1 W 9 11 5 6 1016.3 1016.3 2.0
23/07:30am 21.6 23.7 20.2 92 0.9 W 9 11 5 6 1016.1 1016.1 2.0
23/07:00am 21.4 23.7 19.9 91 1.0 WNW 7 9 4 5 1015.9 1015.9 2.0
23/06:30am 21.4 23.4 19.9 91 1.0 WNW 9 11 5 6 1015.6 1015.5 2.0
23/06:00am 21.2 22.7 19.7 91 1.0 NW 11 13 6 7 1015.5 1015.4 2.0
23/05:30am 21.1 23.1 19.9 93 0.8 WNW 9 13 5 7 1015.3 1015.2 2.0
23/05:00am 21.2 23.1 19.7 91 1.0 WNW 9 11 5 6 1015.0 1014.9 2.0
23/04:30am 21.2 22.7 19.7 91 1.0 WNW 11 13 6 7 1014.7 1014.6 2.0
23/04:00am 21.3 23.7 20.1 93 0.8 W 7 11 4 6 1014.7 1014.6 2.0
23/03:30am 21.4 24.3 20.6 95 0.5 W 6 11 3 6 1014.5 1014.4 2.0
23/03:00am 21.4 22.6 20.0 92 0.9 WSW 13 17 7 9 1014.2 1014.1 2.0
23/02:30am 21.1 22.5 20.4 96 0.5 SSW 13 15 7 8 1014.2 1014.1 2.0
23/02:00am 21.3 23.0 21.0 98 0.2 SSW 13 17 7 9 1014.4 1014.3 2.0
23/01:30am 21.7 24.5 21.5 99 0.1 WSW 9 15 5 8 1014.1 1014.0 2.0
23/01:00am 21.9 24.1 21.2 96 0.5 NNW 11 15 6 8 1013.9 1013.8 2.0
23/12:30am 21.9 24.4 21.1 95 0.5 NW 9 13 5 7 1014.3 1014.2 2.0
23/12:00am 21.6 24.8 20.4 93 0.8 SSW 4 9 2 5 1014.8 1014.7 2.0
 
Date/Time
EDT
Temp
°C
App
Temp
°C
Dew
Point
°C
Rel
Hum
%
Delta-T
°C
Wind Press
QNH
hPa
Press
MSL
hPa
Rain since
9am
mm
Dir  Spd
km/h
Gust
km/h
Spd
kts
Gust
kts
22/11:30pm 21.7 23.9 20.3 92 0.9 S 9 13 5 7 1015.8 1015.8 2.0
22/11:00pm 22.2 24.6 22.2 100 0.0 SSE 13 19 7 10 1016.1 1016.1 2.0
22/10:30pm 22.5 27.5 22.5 100 0.0 CALM 0 0 0 0 1015.9 1015.9 1.6
22/10:00pm 22.4 27.3 22.4 100 0.0 CALM 0 0 0 0 1015.2 1015.1 1.6
22/09:30pm 22.4 26.0 22.4 100 0.0 NNW 7 9 4 5 1014.8 1014.7 1.6
22/09:00pm 22.5 26.0 22.2 98 0.2 SSW 7 9 4 5 1014.0 1013.9 1.6
22/08:30pm 22.7 26.1 22.0 96 0.5 WNW 7 9 4 5 1014.4 1014.3 1.6
22/08:00pm 22.9 25.9 21.9 94 0.7 SW 9 11 5 6 1013.9 1013.8 1.2
22/07:30pm 23.1 25.9 22.3 95 0.5 W 11 13 6 7 1013.5 1013.4 0.6
22/07:00pm 23.3 26.5 22.3 94 0.7 WSW 9 15 5 8 1013.1 1013.0 0.6
22/06:30pm 23.4 27.0 22.4 94 0.7 W 7 9 4 5 1012.6 1012.5 0.6
22/06:00pm 23.5 26.6 22.1 92 0.9 NW 9 11 5 6 1012.3 1012.2 0.6
22/05:30pm 23.6 27.3 22.6 94 0.7 NW 7 9 4 5 1012.2 1012.1 0.6
22/05:00pm 23.6 26.9 22.6 94 0.7 WNW 9 11 5 6 1012.0 1011.9 0.6
22/04:30pm 23.5 25.3 21.8 90 1.1 NW 15 19 8 10 1012.4 1012.3 0.4
22/04:00pm 25.2 27.6 21.5 80 2.5 NNW 11 17 6 9 1012.3 1012.2 0.0
22/03:30pm 25.7 30.1 22.8 84 2.0 NE 4 7 2 4 1012.4 1012.3 0.0
22/03:00pm 25.3 28.3 22.0 82 2.2 ENE 9 13 5 7 1012.6 1012.5 0.0
22/02:30pm 25.5 27.9 22.2 82 2.2 ESE 13 17 7 9 1012.6 1012.5 0.0
22/02:00pm 27.1 30.5 22.7 77 3.0 ESE 9 11 5 6 1012.7 1012.6 0.0
22/01:30pm 27.3 30.7 22.0 73 3.6 ESE 7 9 4 5 1012.8 1012.7 0.0
22/01:00pm 27.0 30.8 21.7 73 3.5 ENE 4 7 2 4 1013.1 1013.0 0.0
22/12:30pm 26.7 30.3 22.3 77 3.0 NE 7 7 4 4 1013.5 1013.4 0.0
22/12:00pm 26.1 29.7 22.4 80 2.5 N 7 9 4 5 1013.6 1013.5 0.0
22/11:30am 25.9 29.5 22.0 79 2.6 WNW 6 7 3 4 1014.0 1013.9 0.0
22/11:00am 25.8 30.5 21.9 79 2.6 CALM 0 0 0 0 1014.2 1014.1 0.0
22/10:30am 25.6 29.1 21.9 80 2.5 WNW 6 9 3 5 1014.4 1014.3 0.0
22/10:00am 24.8 27.8 21.3 81 2.3 NNW 7 11 4 6 1014.3 1014.2 0.0
22/09:30am 23.3 26.8 21.9 92 0.9 NNE 6 7 3 4 1014.2 1014.1 0.0
22/09:00am 22.6 26.2 22.3 98 0.2 NNE 7 9 4 5 1014.0 1013.9 4.8
22/08:30am 22.3 26.0 22.3 100 0.0 NNE 6 7 3 4 1013.6 1013.5 4.8
22/08:00am 22.0 26.0 22.0 100 0.0 NNE 4 9 2 5 1013.3 1013.2 4.8
22/07:30am 21.8 26.4 21.8 100 0.0 CALM 0 0 0 0 1012.9 1012.8 4.8
22/07:00am 21.6 26.1 21.6 100 0.0 CALM 0 0 0 0 1012.6 1012.5 4.8
22/06:30am 21.6 26.1 21.6 100 0.0 CALM 0 0 0 0 1012.3 1012.2 4.8
22/06:00am 21.5 26.0 21.5 100 0.0 CALM 0 0 0 0 1012.2 1012.1 4.8
22/05:30am 21.7 25.0 21.5 99 0.1 NNE 6 6 3 3 1012.2 1012.1 4.8
22/05:00am 21.8 26.3 21.5 98 0.2 CALM 0 0 0 0 1012.1 1012.0 4.8
22/04:30am 22.0 25.4 21.7 98 0.2 NNE 6 7 3 4 1012.0 1011.9 4.8
22/04:00am 22.0 25.0 21.3 96 0.5 NNE 7 9 4 5 1012.0 1011.9 4.8
22/03:30am 22.0 26.3 21.2 95 0.5 CALM 0 0 0 0 1012.1 1012.0 4.8
22/03:00am 22.1 26.5 21.3 95 0.5 CALM 0 0 0 0 1012.4 1012.3 4.8
22/02:30am 22.4 26.6 21.0 92 0.9 CALM 0 0 0 0 1012.8 1012.7 4.8
22/02:00am 22.6 25.7 21.1 91 1.0 NNE 6 7 3 4 1012.8 1012.7 4.8
22/01:30am 23.1 26.5 21.0 88 1.4 NNE 4 7 2 4 1012.8 1012.7 4.8
22/01:00am 22.8 25.8 20.9 89 1.2 NNE 6 9 3 5 1013.0 1012.9 4.8
22/12:30am 23.1 26.2 21.0 88 1.4 NNE 6 9 3 5 1013.3 1013.2 4.8
22/12:00am 23.4 26.3 21.1 87 1.5 NNE 7 9 4 5 1013.8 1013.7 4.8
 
Date/Time
EDT
Temp
°C
App
Temp
°C
Dew
Point
°C
Rel
Hum
%
Delta-T
°C
Wind Press
QNH
hPa
Press
MSL
hPa
Rain since
9am
mm
Dir  Spd
km/h
Gust
km/h
Spd
kts
Gust
kts
21/11:30pm 23.4 25.9 21.1 87 1.5 NNE 9 11 5 6 1014.2 1014.1 4.8
21/11:00pm 23.6 25.4 21.1 86 1.6 NNE 13 17 7 9 1014.2 1014.1 4.8
21/10:30pm 23.5 25.7 21.2 87 1.5 NE 11 13 6 7 1014.3 1014.2 4.8
21/10:00pm 23.9 26.7 20.8 83 2.0 NNE 7 11 4 6 1014.7 1014.6 4.8
21/09:30pm 24.0 26.7 20.7 82 2.2 NNE 7 9 4 5 1014.9 1014.8 4.8
21/09:00pm 24.3 26.7 20.8 81 2.3 NNE 9 15 5 8 1014.3 1014.2 4.8
21/08:30pm 24.4 26.0 20.7 80 2.4 NNE 13 19 7 10 1013.9 1013.8 4.8
21/08:00pm 24.6 26.7 20.9 80 2.4 NE 11 17 6 9 1013.6 1013.5 4.8
21/07:30pm 24.9 26.3 21.0 79 2.6 NE 15 20 8 11 1013.4 1013.3 4.8
21/07:00pm 25.2 27.3 20.9 77 2.8 NNE 11 19 6 10 1013.4 1013.3 4.8
21/06:30pm 25.7 28.2 21.1 76 3.0 NNE 9 13 5 7 1013.4 1013.3 4.8
21/06:00pm 26.1 28.3 21.1 74 3.3 NNE 11 19 6 10 1013.3 1013.2 4.8
21/05:30pm 26.1 28.8 21.3 75 3.2 NNE 9 17 5 9 1013.2 1013.1 4.8
21/05:00pm 26.3 28.3 20.8 71 3.6 NNE 11 17 6 9 1013.3 1013.2 4.8
21/04:30pm 26.3 27.7 21.1 73 3.4 NNE 15 22 8 12 1013.4 1013.3 4.8
21/04:00pm 26.7 28.7 20.8 70 3.9 NNE 11 17 6 9 1013.5 1013.4 4.8
21/03:30pm 26.8 28.5 20.9 70 3.9 NNE 13 22 7 12 1013.4 1013.3 4.8
21/03:00pm 27.0 27.9 20.8 69 4.1 NNE 17 26 9 14 1013.6 1013.5 4.8
21/02:30pm 27.7 28.0 20.5 65 4.7 NNE 19 32 10 17 1014.0 1013.9 4.8
21/02:00pm 27.6 27.9 20.7 66 4.6 NNE 20 32 11 17 1014.4 1014.3 4.8
21/01:30pm 26.7 27.0 20.3 68 4.2 NNE 19 30 10 16 1014.9 1014.8 4.8
21/01:00pm 26.5 27.1 20.3 68 4.1 N 17 30 9 16 1015.5 1015.4 4.8
21/12:30pm 26.6 28.3 21.6 74 3.3 NNE 15 28 8 15 1015.9 1015.9 4.8
21/12:00pm 25.5 28.6 22.8 85 1.8 NNE 11 15 6 8 1016.4 1016.4 4.8
21/11:30am 23.4 26.8 22.0 92 0.9 NNE 7 11 4 6 1016.8 1016.8 4.0
21/11:00am 23.8 26.0 21.9 89 1.3 N 13 20 7 11 1016.9 1016.9 1.8
21/10:30am 24.9 26.5 21.4 81 2.3 NNE 15 24 8 13 1017.1 1017.1 0.0
21/10:00am 24.4 25.6 20.7 80 2.4 NNE 15 24 8 13 1017.0 1017.0 0.0
21/09:30am 24.2 26.3 20.9 82 2.2 NNE 11 19 6 10 1017.2 1017.2 0.0
21/09:00am 24.1 26.5 21.6 86 1.7 NE 11 15 6 8 1017.2 1017.2 0.6
21/08:30am 23.3 25.2 20.6 85 1.8 NE 11 17 6 9 1017.1 1017.1 0.6
21/08:00am 23.1 25.0 20.6 86 1.6 NNE 11 17 6 9 1016.9 1016.9 0.6
21/07:30am 23.1 24.6 20.6 86 1.6 NNE 13 22 7 12 1016.5 1016.5 0.6
21/07:00am 23.0 24.6 20.7 87 1.5 NE 13 26 7 14 1016.2 1016.2 0.6
21/06:30am 22.7 24.5 21.2 91 1.0 NE 13 19 7 10 1015.9 1015.9 0.6
21/06:00am 22.4 25.2 21.6 95 0.5 ENE 9 9 5 5 1015.8 1015.8 0.6
21/05:30am 22.5 24.9 21.5 94 0.7 NE 11 17 6 9 1015.6 1015.5 0.6
21/05:00am 22.3 25.9 22.0 98 0.2 E 6 7 3 4 1015.5 1015.4 0.6
21/04:30am 22.3 25.6 21.8 97 0.3 ESE 7 9 4 5 1015.7 1015.7 0.6
21/04:00am 22.3 24.8 21.8 97 0.3 E 11 13 6 7 1015.6 1015.5 0.6
21/03:30am 22.4 25.0 21.9 97 0.3 NE 11 15 6 8 1015.8 1015.8 0.6
21/03:00am 22.5 24.8 22.0 97 0.3 NE 13 17 7 9 1016.0 1016.0 0.6
21/02:30am 22.4 25.2 21.6 95 0.5 ENE 9 11 5 6 1016.0 1016.0 0.6
21/02:00am 22.5 25.0 21.7 95 0.5 E 11 15 6 8 1016.2 1016.2 0.6
21/01:30am 22.5 25.7 21.7 95 0.5 NNE 7 9 4 5 1016.6 1016.6 0.6
21/01:00am 22.6 25.8 21.2 92 0.9 NNE 6 9 3 5 1016.7 1016.7 0.6
21/12:30am 23.1 26.2 21.4 90 1.1 N 7 11 4 6 1016.9 1016.9 0.6
21/12:00am 22.9 26.2 21.4 91 1.0 N 6 7 3 4 1017.3 1017.3 0.6
 
Date/Time
EDT
Temp
°C
App
Temp
°C
Dew
Point
°C
Rel
Hum
%
Delta-T
°C
Wind Press
QNH
hPa
Press
MSL
hPa
Rain since
9am
mm
Dir  Spd
km/h
Gust
km/h
Spd
kts
Gust
kts
20/11:30pm 22.8 25.3 21.1 90 1.1 NE 9 15 5 8 1017.0 1017.0 0.6
20/11:00pm 23.1 24.9 21.2 89 1.2 NNE 13 19 7 10 1017.0 1017.0 0.6
20/10:30pm 23.3 25.3 21.6 90 1.1 NNE 13 19 7 10 1017.4 1017.4 0.6
20/10:00pm 23.3 26.4 21.4 89 1.2 N 7 11 4 6 1017.5 1017.5 0.6
20/09:30pm 23.4 26.2 21.5 89 1.3 NNE 9 15 5 8 1017.4 1017.4 0.6
20/09:00pm 23.0 26.2 21.6 92 0.9 NNE 7 11 4 6 1017.2 1017.2 0.6
20/08:30pm 22.6 25.9 21.8 95 0.5 NNE 7 11 4 6 1017.1 1017.1 0.6
20/08:00pm 22.5 26.4 21.8 96 0.5 NNE 4 9 2 5 1016.9 1016.9 0.4
20/07:30pm 22.7 24.7 21.5 93 0.8 NNW 13 28 7 15 1016.7 1016.7 0.2
20/07:00pm 24.0 26.4 20.9 83 2.0 NE 9 15 5 8 1016.4 1016.4 0.2
20/06:30pm 24.0 26.3 21.3 85 1.8 NE 11 13 6 7 1016.3 1016.3 0.2
20/06:00pm 24.3 26.6 21.4 84 1.9 NE 11 17 6 9 1016.3 1016.3 0.2
20/05:30pm 24.4 27.5 21.5 84 1.9 NE 7 11 4 6 1016.2 1016.2 0.2
20/05:00pm 24.4 26.5 21.7 85 1.8 NE 13 17 7 9 1016.4 1016.4 0.2
20/04:30pm 24.2 26.4 21.9 87 1.5 NE 13 19 7 10 1016.3 1016.3 0.2
20/04:00pm 24.1 25.4 21.6 86 1.7 NE 17 24 9 13 1016.4 1016.4 0.2
20/03:30pm 23.9 25.2 21.6 87 1.5 NE 17 20 9 11 1016.6 1016.6 0.2
20/03:00pm 23.5 25.4 21.4 88 1.4 NNE 13 19 7 10 1017.0 1017.0 0.2
20/02:30pm 23.6 26.4 21.5 88 1.4 NNE 9 11 5 6 1017.4 1017.4 0.2
20/02:00pm 24.6 26.4 21.1 81 2.3 NNE 13 20 7 11 1017.4 1017.4 0.2
20/01:30pm 24.3 27.1 21.6 85 1.8 NE 9 15 5 8 1017.5 1017.5 0.2
20/01:00pm 24.6 27.2 21.9 85 1.8 NE 11 17 6 9 1017.9 1017.9 0.2
20/12:30pm 24.2 26.9 22.1 88 1.4 NE 11 15 6 8 1018.1 1018.1 0.2
20/12:00pm 23.5 25.9 22.3 93 0.8 NE 13 20 7 11 1018.6 1018.6 0.2
20/11:30am 24.5 26.4 21.4 83 2.0 NE 13 20 7 11 1018.8 1018.8 0.0
20/11:00am 24.2 26.4 21.9 87 1.5 NE 13 17 7 9 1019.1 1019.1 0.0
20/10:30am 23.7 26.0 22.1 91 1.1 NE 13 17 7 9 1019.3 1019.3 0.0
20/10:00am 23.5 25.5 22.3 93 0.8 NE 15 20 8 11 1019.2 1019.2 0.0
20/09:30am 23.4 26.5 22.9 97 0.3 NE 11 15 6 8 1019.3 1019.3 0.0

Other Formats:

Comma delimited format used in spreadsheet applications
http://www.bom.gov.au/fwo/IDN60801/IDN60801.95784.axf

JavaScript Object Notation format (JSON) in row-major order
http://www.bom.gov.au/fwo/IDN60801/IDN60801.95784.json